createdAt,value
2022-10-01T00:00:15.638Z,7.33
2022-10-01T00:05:19.262Z,7.25
2022-10-01T00:10:23.463Z,7.14
2022-10-01T00:15:27.239Z,7.03
2022-10-01T00:20:31.146Z,6.93
2022-10-01T00:25:35.151Z,6.84
2022-10-01T00:30:45.995Z,6.77
2022-10-01T00:35:50.415Z,6.67
2022-10-01T00:40:54.936Z,6.52
2022-10-01T00:46:04.612Z,6.44
2022-10-01T00:51:13.451Z,6.44
2022-10-01T00:56:18.333Z,6.44
2022-10-01T01:01:24.134Z,6.45
2022-10-01T01:06:28.336Z,6.41
2022-10-01T01:11:39.969Z,6.32
2022-10-01T01:16:50.590Z,6.18
2022-10-01T01:21:59.777Z,6.07
2022-10-01T01:27:16.737Z,5.99
2022-10-01T01:32:25.455Z,5.93
2022-10-01T01:37:35.137Z,5.89
2022-10-01T01:42:42.115Z,5.82
2022-10-01T01:47:47.131Z,5.82
2022-10-01T01:52:51.115Z,5.86
2022-10-01T01:57:56.355Z,5.90
2022-10-01T02:03:01.225Z,5.99
2022-10-01T02:08:23.119Z,6.07
2022-10-01T02:13:41.465Z,6.19
2022-10-01T02:18:50.273Z,6.31
2022-10-01T02:23:59.390Z,6.45
2022-10-01T02:29:07.653Z,6.58
2022-10-01T02:34:19.405Z,6.68
2022-10-01T02:39:27.436Z,6.72
2022-10-01T02:44:37.569Z,6.75
2022-10-01T02:49:41.757Z,6.76
2022-10-01T02:54:53.052Z,6.77
2022-10-01T02:59:59.354Z,6.76
2022-10-01T03:05:04.192Z,6.67
2022-10-01T03:10:10.173Z,6.54
2022-10-01T03:15:17.891Z,6.45
2022-10-01T03:20:22.418Z,6.41
2022-10-01T03:25:26.687Z,6.38
2022-10-01T03:30:30.399Z,6.35
2022-10-01T03:35:34.236Z,6.33
2022-10-01T03:40:38.586Z,6.33
2022-10-01T03:45:42.829Z,6.32
2022-10-01T03:50:54.495Z,6.34
2022-10-01T03:55:59.631Z,6.35
2022-10-01T04:01:03.340Z,6.33
2022-10-01T04:06:07.554Z,6.28
2022-10-01T04:11:12.229Z,6.25
2022-10-01T04:16:16.156Z,6.22
2022-10-01T04:21:20.273Z,6.23
2022-10-01T04:26:24.779Z,6.21
2022-10-01T04:31:34.262Z,6.13
2022-10-01T04:36:38.199Z,6.03
2022-10-01T04:41:42.026Z,5.96
2022-10-01T04:46:46.550Z,5.94
2022-10-01T04:51:50.802Z,5.97
2022-10-01T04:56:54.434Z,5.96
2022-10-01T05:01:58.226Z,5.92
2022-10-01T05:07:01.942Z,5.85
2022-10-01T05:12:07.614Z,5.82
2022-10-01T05:17:11.540Z,5.81
2022-10-01T05:22:15.325Z,5.84
2022-10-01T05:27:19.621Z,5.89
2022-10-01T05:32:24.060Z,5.93
2022-10-01T05:37:27.901Z,6.01
2022-10-01T05:42:32.168Z,6.15
2022-10-01T05:47:35.994Z,6.34
2022-10-01T05:53:07.127Z,6.56
2022-10-01T05:58:16.998Z,6.83
2022-10-01T06:03:38.350Z,7.12
2022-10-01T06:08:52.478Z,7.48
2022-10-01T06:14:03.238Z,7.78
2022-10-01T06:19:06.976Z,7.94
2022-10-01T06:24:12.320Z,8.00
2022-10-01T06:29:16.259Z,8.11
2022-10-01T06:34:20.281Z,8.31
2022-10-01T06:39:24.139Z,8.52
2022-10-01T06:44:28.132Z,8.74
2022-10-01T06:49:31.678Z,8.96
2022-10-01T06:54:35.200Z,9.09
2022-10-01T06:59:38.794Z,9.33
2022-10-01T07:04:42.449Z,9.76
2022-10-01T07:09:46.234Z,10.21
2022-10-01T07:14:49.763Z,10.65
2022-10-01T07:19:53.306Z,10.99
2022-10-01T07:24:56.880Z,11.39
2022-10-01T07:30:00.444Z,11.82
2022-10-01T07:35:05.460Z,12.29
2022-10-01T07:40:10.268Z,12.68
2022-10-01T07:45:13.934Z,13.14
2022-10-01T07:50:19.100Z,13.51
2022-10-01T07:55:26.058Z,14.06
2022-10-01T08:00:32.407Z,14.59
2022-10-01T08:05:37.309Z,15.07
2022-10-01T08:10:42.425Z,15.77
2022-10-01T08:15:49.470Z,16.64
2022-10-01T08:20:56.256Z,17.35
2022-10-01T08:26:01.414Z,17.95
2022-10-01T08:31:09.336Z,18.50
2022-10-01T08:36:16.491Z,18.96
2022-10-01T08:41:31.176Z,18.96
2022-10-01T08:46:37.366Z,19.30
2022-10-01T08:51:48.449Z,19.66
2022-10-01T08:56:54.446Z,19.78
2022-10-01T09:01:58.981Z,19.88
2022-10-01T09:07:10.216Z,19.79
2022-10-01T09:12:27.838Z,19.23
2022-10-01T09:17:52.626Z,19.00
2022-10-01T09:23:11.684Z,19.09
2022-10-01T09:28:19.302Z,18.53
2022-10-01T09:33:22.746Z,17.63
2022-10-01T09:38:34.137Z,16.94
2022-10-01T09:43:40.207Z,16.35
2022-10-01T09:48:49.487Z,15.80
2022-10-01T09:54:04.710Z,15.45
2022-10-01T09:59:16.848Z,15.15
2022-10-01T10:04:23.266Z,15.00
2022-10-01T10:09:32.159Z,14.93
2022-10-01T10:14:39.693Z,14.99
2022-10-01T10:19:48.963Z,15.10
2022-10-01T10:24:53.654Z,15.25
2022-10-01T10:30:08.142Z,15.38
2022-10-01T10:35:15.804Z,15.60
2022-10-01T10:40:27.008Z,15.53
2022-10-01T10:45:39.478Z,15.44
2022-10-01T10:50:46.137Z,15.36
2022-10-01T10:56:00.653Z,15.31
2022-10-01T11:01:09.885Z,15.24
2022-10-01T11:06:18.046Z,15.23
2022-10-01T11:11:36.446Z,15.32
2022-10-01T11:16:54.099Z,15.42
2022-10-01T11:22:14.101Z,15.39
2022-10-01T11:27:25.787Z,15.29
2022-10-01T11:32:37.478Z,15.14
2022-10-01T11:37:59.416Z,15.04
2022-10-01T11:43:07.003Z,15.03
2022-10-01T11:48:18.944Z,15.04
2022-10-01T11:53:31.790Z,15.03
2022-10-01T11:58:52.508Z,15.01
2022-10-01T12:04:16.119Z,14.94
2022-10-01T12:09:24.524Z,14.95
2022-10-01T12:14:37.759Z,15.02
2022-10-01T12:19:49.879Z,15.04
2022-10-01T12:24:54.015Z,14.98
2022-10-01T12:30:04.698Z,15.02
2022-10-01T12:35:23.156Z,14.95
2022-10-01T12:40:34.029Z,14.95
2022-10-01T12:45:48.656Z,14.92
2022-10-01T12:51:04.645Z,14.87
2022-10-01T12:56:16.179Z,14.79
2022-10-01T13:01:31.733Z,14.79
2022-10-01T13:06:47.497Z,14.79
2022-10-01T13:12:11.553Z,14.70
2022-10-01T13:17:21.403Z,14.59
2022-10-01T13:22:34.600Z,14.54
2022-10-01T13:27:43.601Z,14.49
2022-10-01T13:32:57.153Z,14.45
2022-10-01T13:38:14.607Z,14.50
2022-10-01T13:43:23.489Z,14.52
2022-10-01T13:48:34.268Z,14.56
2022-10-01T13:53:49.511Z,14.68
2022-10-01T13:58:53.234Z,14.73
2022-10-01T14:04:04.602Z,14.63
2022-10-01T14:09:16.500Z,14.52
2022-10-01T14:14:44.560Z,14.42
2022-10-01T14:19:50.511Z,14.36
2022-10-01T14:25:14.345Z,14.25
2022-10-01T14:30:22.842Z,14.12
2022-10-01T14:35:33.753Z,14.01
2022-10-01T14:40:40.044Z,13.96
2022-10-01T14:45:54.877Z,13.97
2022-10-01T14:51:03.982Z,13.94
2022-10-01T14:56:12.856Z,13.88
2022-10-01T15:01:21.447Z,13.81
2022-10-01T15:06:29.150Z,13.72
2022-10-01T15:11:34.959Z,13.66
2022-10-01T15:16:40.170Z,13.62
2022-10-01T15:21:49.879Z,13.57
2022-10-01T15:26:58.318Z,13.48
2022-10-01T15:32:08.205Z,13.40
2022-10-01T15:37:20.956Z,13.36
2022-10-01T15:42:29.940Z,13.33
2022-10-01T15:47:36.882Z,13.27
2022-10-01T15:52:50.767Z,13.18
2022-10-01T15:57:57.699Z,13.10
2022-10-01T16:03:02.253Z,13.06
2022-10-01T16:08:09.693Z,13.01
2022-10-01T16:13:42.754Z,12.95
2022-10-01T16:18:56.143Z,12.94
2022-10-01T16:24:27.417Z,12.93
2022-10-01T16:29:35.010Z,12.90
2022-10-01T16:34:41.648Z,12.89
2022-10-01T16:39:45.730Z,12.86
2022-10-01T16:44:50.856Z,12.72
2022-10-01T16:49:54.611Z,12.48
2022-10-01T16:54:58.292Z,12.16
2022-10-01T17:00:02.339Z,11.87
2022-10-01T17:05:16.434Z,11.67
2022-10-01T17:10:22.281Z,11.48
2022-10-01T17:15:29.937Z,11.31
2022-10-01T17:20:33.949Z,11.14
2022-10-01T17:25:40.074Z,11.08
2022-10-01T17:30:45.967Z,11.07
2022-10-01T17:35:51.376Z,11.03
2022-10-01T17:40:56.838Z,10.94
2022-10-01T17:46:01.889Z,10.78
2022-10-01T17:51:08.186Z,10.67
2022-10-01T17:56:14.856Z,10.56
2022-10-01T18:01:22.326Z,10.53
2022-10-01T18:07:08.315Z,10.55
2022-10-01T18:12:12.838Z,10.56
2022-10-01T18:17:17.466Z,10.56
2022-10-01T18:22:23.374Z,10.54
2022-10-01T18:27:27.640Z,10.48
2022-10-01T18:32:37.372Z,10.42
2022-10-01T18:37:46.249Z,10.41
2022-10-01T18:42:55.189Z,10.41
2022-10-01T18:48:11.156Z,10.45
2022-10-01T18:53:39.989Z,10.45
2022-10-01T18:58:57.391Z,10.42
2022-10-01T19:04:28.795Z,10.44
2022-10-01T19:09:43.675Z,10.50
2022-10-01T19:15:03.382Z,10.56
2022-10-01T19:20:23.472Z,10.62
2022-10-01T19:25:33.103Z,10.68
2022-10-01T19:30:56.837Z,10.72
2022-10-01T19:36:01.198Z,10.72
2022-10-01T19:41:14.277Z,10.75
2022-10-01T19:46:22.788Z,10.80
2022-10-01T19:51:32.557Z,10.85
2022-10-01T19:56:37.842Z,10.93
2022-10-01T20:01:49.059Z,10.99
2022-10-01T20:06:59.871Z,11.02
2022-10-01T20:12:11.072Z,11.02
2022-10-01T20:17:22.158Z,11.07
2022-10-01T20:22:36.416Z,11.10
2022-10-01T20:27:49.594Z,11.14
2022-10-01T20:33:00.990Z,11.14
2022-10-01T20:38:11.281Z,11.13
2022-10-01T20:43:18.024Z,11.13
2022-10-01T20:55:48.897Z,11.18
2022-10-01T21:01:00.112Z,11.17
2022-10-01T21:06:11.944Z,11.17
2022-10-01T21:11:25.007Z,11.19
2022-10-01T21:16:52.413Z,11.24
2022-10-01T21:22:06.274Z,11.29
2022-10-01T21:27:26.516Z,11.32
2022-10-01T21:32:47.196Z,11.32
2022-10-01T21:38:01.835Z,11.33
2022-10-01T21:43:18.507Z,11.34
2022-10-01T21:48:38.978Z,11.39
2022-10-01T21:54:02.820Z,11.44
2022-10-01T21:59:16.325Z,11.41
2022-10-01T22:04:26.988Z,11.37
2022-10-01T22:09:39.047Z,11.35
2022-10-01T22:14:45.538Z,11.34
2022-10-01T22:19:52.257Z,11.32
2022-10-01T22:24:59.309Z,11.27
2022-10-01T22:30:10.956Z,11.23
2022-10-01T22:35:20.507Z,11.22
2022-10-01T22:40:28.797Z,11.27
2022-10-01T22:45:47.671Z,11.33
2022-10-01T22:51:04.567Z,11.40
2022-10-01T22:56:13.931Z,11.43
2022-10-01T23:01:30.534Z,11.43
2022-10-01T23:06:50.780Z,11.45
2022-10-01T23:12:04.099Z,11.49
2022-10-01T23:17:14.538Z,11.53
2022-10-01T23:22:36.024Z,11.55
2022-10-01T23:27:50.749Z,11.55
2022-10-01T23:33:11.647Z,11.56
2022-10-01T23:38:35.035Z,11.58
2022-10-01T23:43:46.279Z,11.60
2022-10-01T23:48:55.891Z,11.57
2022-10-01T23:54:04.764Z,11.56
2022-10-01T23:59:16.009Z,11.56
